createdAt,value
2023-03-19T00:00:56.303Z,97590.56
2023-03-19T00:03:24.235Z,97598.31
2023-03-19T00:05:53.813Z,97586.28
2023-03-19T00:08:22.678Z,97578.81
2023-03-19T00:10:50.947Z,97566.09
2023-03-19T00:13:20.590Z,97565.97
2023-03-19T00:15:48.523Z,97557.41
2023-03-19T00:18:16.311Z,97595.81
2023-03-19T00:20:44.789Z,97640.91
2023-03-19T00:23:12.694Z,97624.00
2023-03-19T00:25:40.500Z,97599.97
2023-03-19T00:28:08.258Z,97581.03
2023-03-19T00:30:37.503Z,97585.59
2023-03-19T00:33:05.420Z,97582.97
2023-03-19T00:35:34.356Z,97575.09
2023-03-19T00:38:02.239Z,97578.81
2023-03-19T00:40:30.523Z,97580.47
2023-03-19T00:42:58.296Z,97577.03
2023-03-19T00:45:26.407Z,97586.41
2023-03-19T00:47:56.300Z,97589.75
2023-03-19T00:50:25.068Z,97595.81
2023-03-19T00:52:53.219Z,97586.28
2023-03-19T00:55:20.963Z,97606.31
2023-03-19T01:01:07.379Z,97641.16
2023-03-19T01:03:47.209Z,97674.78
2023-03-19T01:07:05.738Z,97672.28
2023-03-19T01:09:33.728Z,97662.75
2023-03-19T01:12:04.760Z,97647.22
2023-03-19T01:14:32.839Z,97661.19
2023-03-19T01:17:01.088Z,97713.09
2023-03-19T01:19:32.434Z,97728.00
2023-03-19T01:22:00.618Z,97707.25
2023-03-19T01:24:31.721Z,97713.34
2023-03-19T01:26:59.958Z,97714.19
2023-03-19T01:29:27.838Z,97715.84
2023-03-19T01:31:55.990Z,97747.50
2023-03-19T01:34:24.238Z,97760.38
2023-03-19T01:36:53.412Z,97737.28
2023-03-19T01:39:21.286Z,97708.34
2023-03-19T01:41:49.166Z,97704.91
2023-03-19T01:44:28.460Z,97702.28
2023-03-19T01:46:58.599Z,97690.13
2023-03-19T01:49:28.964Z,97659.91
2023-03-19T01:52:00.372Z,97670.72
2023-03-19T01:54:30.613Z,97645.56
2023-03-19T01:57:03.374Z,97668.22
2023-03-19T01:59:34.825Z,97700.63
2023-03-19T02:02:07.822Z,97726.34
2023-03-19T02:04:37.871Z,97716.81
2023-03-19T02:07:08.678Z,97744.06
2023-03-19T02:09:37.414Z,97757.03
2023-03-19T02:12:06.106Z,97740.84
2023-03-19T02:14:33.850Z,97741.81
2023-03-19T02:17:01.860Z,97715.28
2023-03-19T02:19:36.687Z,97696.47
2023-03-19T02:22:07.464Z,97696.47
2023-03-19T02:24:39.955Z,97681.81
2023-03-19T02:27:09.678Z,97680.97
2023-03-19T02:29:38.972Z,97680.00
2023-03-19T02:32:07.188Z,97683.47
2023-03-19T02:34:38.343Z,97693.97
2023-03-19T02:37:12.593Z,97688.97
2023-03-19T02:39:48.158Z,97665.47
2023-03-19T02:42:19.782Z,97663.94
2023-03-19T02:44:47.745Z,97657.16
2023-03-19T02:47:16.175Z,97635.59
2023-03-19T02:49:44.030Z,97645.84
2023-03-19T02:52:12.278Z,97634.63
2023-03-19T02:54:40.151Z,97642.78
2023-03-19T02:57:08.243Z,97646.09
2023-03-19T02:59:37.431Z,97635.59
2023-03-19T03:02:05.397Z,97637.25
2023-03-19T03:04:34.724Z,97639.19
2023-03-19T03:07:03.356Z,97644.31
2023-03-19T03:09:31.128Z,97644.16
2023-03-19T03:11:59.055Z,97687.31
2023-03-19T03:14:26.968Z,97678.47
2023-03-19T03:16:57.348Z,97692.31
2023-03-19T03:19:25.407Z,97693.13
2023-03-19T03:21:53.233Z,97687.06
2023-03-19T03:24:22.030Z,97690.88
2023-03-19T03:26:49.876Z,97682.91
2023-03-19T03:29:18.232Z,97668.34
2023-03-19T03:31:46.320Z,97677.88
2023-03-19T03:34:15.694Z,97666.13
2023-03-19T03:36:43.462Z,97706.38
2023-03-19T03:39:11.810Z,97698.38
2023-03-19T03:41:39.634Z,97688.97
2023-03-19T03:44:08.498Z,97664.06
2023-03-19T03:46:36.743Z,97640.97
2023-03-19T03:49:04.685Z,97620.38
2023-03-19T03:51:33.969Z,97616.38
2023-03-19T03:54:02.209Z,97603.25
2023-03-19T03:56:30.168Z,97611.94
2023-03-19T03:58:58.005Z,97611.00
2023-03-19T04:01:25.861Z,97616.09
2023-03-19T04:03:54.341Z,97650.66
2023-03-19T04:06:24.135Z,97628.97
2023-03-19T04:08:53.258Z,97613.47
2023-03-19T04:11:21.768Z,97610.16
2023-03-19T04:13:49.519Z,97613.75
2023-03-19T04:16:17.577Z,97603.25
2023-03-19T04:18:45.508Z,97599.94
2023-03-19T04:21:13.672Z,97612.09
2023-03-19T04:23:41.718Z,97597.31
2023-03-19T04:26:12.286Z,97587.44
2023-03-19T04:28:40.320Z,97614.44
2023-03-19T04:31:09.322Z,97592.19
2023-03-19T04:33:37.596Z,97588.03
2023-03-19T04:36:05.834Z,97572.81
2023-03-19T04:38:33.755Z,97550.44
2023-03-19T04:41:01.686Z,97546.53
2023-03-19T04:43:30.967Z,97523.78
2023-03-19T04:45:59.545Z,97493.94
2023-03-19T04:48:27.509Z,97504.28
2023-03-19T04:50:57.129Z,97463.16
2023-03-19T04:53:25.627Z,97449.44
2023-03-19T04:55:53.476Z,97429.13
2023-03-19T04:58:21.869Z,97425.56
2023-03-19T05:00:51.025Z,97429.69
2023-03-19T05:03:18.951Z,97429.84
2023-03-19T05:05:46.822Z,97446.25
2023-03-19T05:08:14.679Z,97428.56
2023-03-19T05:10:42.713Z,97427.22
2023-03-19T05:13:10.462Z,97433.41
2023-03-19T05:15:38.806Z,97434.13
2023-03-19T05:18:08.714Z,97423.19
2023-03-19T05:20:37.233Z,97423.91
2023-03-19T05:23:05.362Z,97441.84
2023-03-19T05:25:35.366Z,97445.16
2023-03-19T05:28:03.286Z,97473.63
2023-03-19T05:30:31.687Z,97469.31
2023-03-19T05:32:59.863Z,97481.38
2023-03-19T05:35:30.569Z,97505.25
2023-03-19T05:37:58.904Z,97525.69
2023-03-19T05:40:28.002Z,97545.44
2023-03-19T05:42:55.843Z,97609.47
2023-03-19T05:45:23.592Z,97656.84
2023-03-19T05:47:51.382Z,97693.63
2023-03-19T05:50:19.849Z,97703.91
2023-03-19T05:52:49.093Z,97703.75
2023-03-19T05:55:17.451Z,97718.41
2023-03-19T05:57:45.582Z,97739.03
2023-03-19T06:00:14.898Z,97757.81
2023-03-19T06:02:44.107Z,97800.72
2023-03-19T06:05:12.333Z,97812.63
2023-03-19T06:07:40.081Z,97854.72
2023-03-19T06:10:10.825Z,97890.69
2023-03-19T06:12:38.561Z,97918.09
2023-03-19T06:15:07.508Z,97957.47
2023-03-19T06:17:35.358Z,97980.72
2023-03-19T06:20:03.450Z,98015.06
2023-03-19T06:22:31.301Z,98033.91
2023-03-19T06:24:59.126Z,98030.44
2023-03-19T06:27:28.253Z,98032.13
2023-03-19T06:29:56.102Z,98050.88
2023-03-19T06:32:23.903Z,98058.03
2023-03-19T06:34:51.768Z,98079.41
2023-03-19T06:37:19.547Z,98176.44
2023-03-19T06:39:47.398Z,98203.91
2023-03-19T06:42:15.367Z,98229.69
2023-03-19T06:44:44.582Z,98221.94
2023-03-19T06:47:12.781Z,98209.16
2023-03-19T06:49:40.741Z,98198.91
2023-03-19T06:52:08.854Z,98230.53
2023-03-19T06:54:38.354Z,98251.19
2023-03-19T06:57:06.412Z,98307.84
2023-03-19T06:59:34.181Z,98404.91
2023-03-19T07:02:03.498Z,98449.63
2023-03-19T07:04:31.397Z,98434.06
2023-03-19T07:06:59.125Z,98485.03
2023-03-19T07:09:27.490Z,98443.66
2023-03-19T07:11:55.311Z,98496.25
2023-03-19T07:14:23.219Z,98498.06
2023-03-19T07:16:51.081Z,98560.91
2023-03-19T07:19:20.658Z,98591.75
2023-03-19T07:21:48.468Z,98570.22
2023-03-19T07:24:16.489Z,98568.53
2023-03-19T07:26:44.864Z,98646.13
2023-03-19T07:29:12.671Z,98665.03
2023-03-19T07:31:41.031Z,98742.88
2023-03-19T07:34:09.058Z,98803.88
2023-03-19T07:36:38.146Z,98726.22
2023-03-19T07:39:06.017Z,98774.53
2023-03-19T07:41:33.798Z,98941.75
2023-03-19T07:44:01.523Z,99053.22
2023-03-19T07:46:29.421Z,99071.22
2023-03-19T07:48:57.247Z,99093.69
2023-03-19T07:51:25.074Z,99034.28
2023-03-19T07:53:54.301Z,99074.84
2023-03-19T07:56:22.071Z,99155.88
2023-03-19T07:58:49.948Z,99177.59
2023-03-19T08:01:17.821Z,99093.06
2023-03-19T08:03:45.576Z,99078.44
2023-03-19T08:06:13.829Z,99206.19
2023-03-19T08:08:41.782Z,99373.84
2023-03-19T08:11:11.700Z,99357.38
2023-03-19T08:13:39.444Z,99445.63
2023-03-19T08:16:07.621Z,99387.63
2023-03-19T08:18:35.876Z,99696.75
2023-03-19T08:21:03.926Z,99788.75
2023-03-19T08:23:31.886Z,99753.03
2023-03-19T08:25:59.666Z,99858.09
2023-03-19T08:28:28.880Z,99654.31
2023-03-19T08:30:56.884Z,99510.72
2023-03-19T08:33:24.917Z,99435.50
2023-03-19T08:35:53.118Z,99408.47
2023-03-19T08:38:21.105Z,99468.25
2023-03-19T08:40:49.178Z,99477.75
2023-03-19T08:43:16.952Z,99584.25
2023-03-19T08:45:46.181Z,99653.38
2023-03-19T08:48:13.934Z,99622.31
2023-03-19T08:50:41.818Z,99704.75
2023-03-19T08:53:09.682Z,99844.44
2023-03-19T08:55:37.666Z,99920.63
2023-03-19T08:58:05.536Z,99944.19
2023-03-19T09:00:33.584Z,99984.94
2023-03-19T09:03:02.813Z,99972.97
2023-03-19T09:05:30.613Z,99843.50
2023-03-19T09:07:58.470Z,99832.16
2023-03-19T09:10:26.568Z,99920.75
2023-03-19T09:12:54.423Z,100026.66
2023-03-19T09:15:22.214Z,100054.34
2023-03-19T09:17:50.022Z,100030.16
2023-03-19T09:20:19.364Z,99944.91
2023-03-19T09:22:47.391Z,100039.63
2023-03-19T09:25:15.726Z,100008.56
2023-03-19T09:27:43.550Z,99848.78
2023-03-19T09:30:13.331Z,99709.22
2023-03-19T09:32:41.437Z,99681.50
2023-03-19T09:35:10.063Z,99665.03
2023-03-19T09:37:39.171Z,99620.00
2023-03-19T09:40:08.882Z,99735.25
2023-03-19T09:42:50.078Z,99799.34
2023-03-19T09:45:19.912Z,99863.50
2023-03-19T09:47:50.920Z,99848.47
2023-03-19T09:50:22.481Z,99788.97
2023-03-19T09:52:57.759Z,99857.47
2023-03-19T09:55:42.163Z,99861.81
2023-03-19T09:58:16.429Z,99993.75
2023-03-19T10:00:47.875Z,100018.94
2023-03-19T10:03:30.981Z,100101.53
2023-03-19T10:06:07.883Z,100079.81
2023-03-19T10:08:50.533Z,100010.47
2023-03-19T10:11:36.497Z,100002.53
2023-03-19T10:14:18.718Z,100145.09
2023-03-19T10:16:50.207Z,100170.22
2023-03-19T10:19:23.413Z,100201.41
2023-03-19T10:21:57.079Z,100329.25
2023-03-19T10:24:31.392Z,100604.09
2023-03-19T10:27:02.953Z,100676.53
2023-03-19T10:29:30.689Z,100901.56
2023-03-19T10:32:12.591Z,100874.53
2023-03-19T10:34:43.368Z,100750.63
2023-03-19T10:37:17.297Z,100740.31
2023-03-19T10:39:48.045Z,100708.94
2023-03-19T10:42:40.163Z,100759.34
2023-03-19T10:45:20.385Z,101085.84
2023-03-19T10:47:48.470Z,101496.88
2023-03-19T10:50:19.372Z,101770.31
2023-03-19T10:52:52.526Z,101682.81
2023-03-19T10:55:26.241Z,101634.66
2023-03-19T10:58:02.731Z,101360.56
2023-03-19T11:00:33.502Z,101115.69
2023-03-19T11:03:04.728Z,101005.50
2023-03-19T11:05:35.340Z,101192.47
2023-03-19T11:08:04.941Z,101257.28
2023-03-19T11:10:35.960Z,100936.06
2023-03-19T11:13:07.410Z,101116.84
2023-03-19T11:15:38.002Z,101276.47
2023-03-19T11:18:16.946Z,101349.91
2023-03-19T11:20:50.749Z,101459.34
2023-03-19T11:23:20.542Z,101630.97
2023-03-19T11:25:52.598Z,101653.06
2023-03-19T11:28:25.647Z,101476.94
2023-03-19T11:31:00.184Z,101135.81
2023-03-19T11:33:45.744Z,100893.03
2023-03-19T11:36:19.300Z,100918.38
2023-03-19T11:39:03.792Z,100780.41
2023-03-19T11:41:50.808Z,100688.19
2023-03-19T11:44:27.408Z,100656.59
2023-03-19T11:47:06.836Z,100786.47
2023-03-19T11:49:48.225Z,100780.31
2023-03-19T11:52:22.020Z,100519.09
2023-03-19T11:55:06.043Z,100525.03
2023-03-19T11:57:54.671Z,100611.53
2023-03-19T12:00:31.352Z,100648.09
2023-03-19T12:03:37.944Z,100536.50
2023-03-19T12:06:12.164Z,100561.72
2023-03-19T12:08:46.588Z,100600.06
2023-03-19T12:11:25.413Z,100708.09
2023-03-19T12:14:11.045Z,100816.19
2023-03-19T12:16:57.406Z,100727.13
2023-03-19T12:19:38.860Z,100716.72
2023-03-19T12:22:18.000Z,100906.88
2023-03-19T12:25:04.326Z,101013.19
2023-03-19T12:27:38.384Z,100975.91
2023-03-19T12:30:20.363Z,101007.22
2023-03-19T12:33:11.107Z,100818.75
2023-03-19T12:35:40.344Z,100790.84
2023-03-19T12:38:16.620Z,100687.25
2023-03-19T12:40:49.870Z,100738.50
2023-03-19T12:43:23.460Z,100720.22
2023-03-19T12:45:59.216Z,100662.78
2023-03-19T12:48:30.596Z,100578.38
2023-03-19T12:51:05.496Z,100431.13
2023-03-19T12:53:41.833Z,100471.09
2023-03-19T12:56:15.977Z,100488.59
2023-03-19T12:58:54.570Z,100392.69
2023-03-19T13:01:28.146Z,100209.53
2023-03-19T13:04:00.395Z,100113.72
2023-03-19T13:06:32.191Z,100041.72
2023-03-19T13:09:06.299Z,100068.56
2023-03-19T13:11:43.152Z,100026.78
2023-03-19T13:14:20.998Z,100091.88
2023-03-19T13:16:57.498Z,100111.19
2023-03-19T13:19:32.054Z,100076.31
2023-03-19T13:22:04.129Z,100021.69
2023-03-19T13:24:35.663Z,100079.38
2023-03-19T13:27:04.152Z,99999.78
2023-03-19T13:29:33.948Z,99962.50
2023-03-19T13:32:05.926Z,100006.88
2023-03-19T13:34:35.901Z,100040.53
2023-03-19T13:37:13.099Z,99988.66
2023-03-19T13:39:42.182Z,99970.34
2023-03-19T13:42:36.264Z,99939.91
2023-03-19T13:45:05.412Z,99872.28
2023-03-19T13:47:44.514Z,99861.81
2023-03-19T13:50:23.539Z,99811.63
2023-03-19T13:52:53.563Z,99853.22
2023-03-19T13:55:34.591Z,99855.78
2023-03-19T13:58:27.865Z,99809.72
2023-03-19T14:01:01.348Z,99790.66
2023-03-19T14:03:33.297Z,99773.31
2023-03-19T14:06:01.803Z,99775.00
2023-03-19T14:08:33.694Z,99775.84
2023-03-19T14:11:03.696Z,99789.59
2023-03-19T14:13:35.926Z,99774.16
2023-03-19T14:16:17.871Z,99758.84
2023-03-19T14:18:49.694Z,99764.53
2023-03-19T14:21:32.742Z,99807.78
2023-03-19T14:27:21.299Z,99807.16
2023-03-19T14:29:51.016Z,100096.88
2023-03-19T14:32:24.729Z,100474.38
2023-03-19T14:34:56.078Z,100752.13
2023-03-19T14:37:28.295Z,100804.50
2023-03-19T14:40:00.557Z,100827.09
2023-03-19T14:42:32.266Z,100970.28
2023-03-19T14:45:30.387Z,100971.13
2023-03-19T14:48:10.414Z,100983.38
2023-03-19T14:51:03.929Z,100826.44
2023-03-19T14:53:40.147Z,100761.06
2023-03-19T14:56:14.822Z,100552.69
2023-03-19T14:58:50.623Z,100451.66
2023-03-19T15:01:19.615Z,100332.44
2023-03-19T15:03:52.864Z,100305.59
2023-03-19T15:06:22.384Z,100124.84
2023-03-19T15:08:51.178Z,100064.88
2023-03-19T15:11:34.570Z,100057.94
2023-03-19T15:14:19.879Z,100037.06
2023-03-19T15:17:00.641Z,99974.69
2023-03-19T15:19:32.534Z,99945.94
2023-03-19T15:22:14.062Z,99866.25
2023-03-19T15:24:42.395Z,99820.06
2023-03-19T15:27:21.983Z,99693.56
2023-03-19T15:29:51.738Z,99720.34
2023-03-19T15:32:52.034Z,99588.78
2023-03-19T15:35:24.070Z,99561.84
2023-03-19T15:37:58.516Z,99559.09
2023-03-19T15:40:30.344Z,99535.84
2023-03-19T15:43:01.207Z,99509.88
2023-03-19T15:45:30.532Z,99490.88
2023-03-19T15:48:03.783Z,99476.91
2023-03-19T15:50:34.483Z,99421.56
2023-03-19T15:53:07.377Z,99454.50
2023-03-19T15:55:36.958Z,99423.38
2023-03-19T15:58:09.130Z,99405.94
2023-03-19T16:00:40.279Z,99396.44
2023-03-19T16:03:12.275Z,99384.41
2023-03-19T16:05:40.342Z,99383.56
2023-03-19T16:08:19.778Z,99388.75
2023-03-19T16:10:48.224Z,99371.44
2023-03-19T16:13:27.851Z,99328.97
2023-03-19T16:16:06.871Z,99322.97
2023-03-19T16:18:43.538Z,99297.88
2023-03-19T16:21:16.664Z,99242.59
2023-03-19T16:23:51.122Z,99217.47
2023-03-19T16:26:23.199Z,99231.41
2023-03-19T16:28:59.885Z,99147.47
2023-03-19T16:31:32.098Z,99134.63
2023-03-19T16:34:00.466Z,99108.59
2023-03-19T16:36:31.252Z,99090.53
2023-03-19T16:39:23.755Z,99099.31
2023-03-19T16:42:15.754Z,99129.34
2023-03-19T16:44:45.370Z,99107.63
2023-03-19T16:47:18.320Z,99059.47
2023-03-19T16:49:47.531Z,99026.09
2023-03-19T16:52:17.590Z,99069.66
2023-03-19T16:54:47.524Z,99034.47
2023-03-19T16:57:17.903Z,99011.94
2023-03-19T16:59:46.987Z,99045.66
2023-03-19T17:02:16.609Z,99081.31
2023-03-19T17:04:44.751Z,99031.84
2023-03-19T17:07:13.808Z,98994.66
2023-03-19T17:09:41.740Z,99003.28
2023-03-19T17:12:17.140Z,99037.00
2023-03-19T17:14:45.178Z,99012.78
2023-03-19T17:17:18.926Z,98991.25
2023-03-19T17:19:48.271Z,98981.69
2023-03-19T17:22:16.231Z,99012.06
2023-03-19T17:24:44.151Z,99004.25
2023-03-19T17:27:13.388Z,99025.00
2023-03-19T17:29:41.172Z,98965.38
2023-03-19T17:32:18.962Z,98980.94
2023-03-19T17:34:47.062Z,98972.56
2023-03-19T17:37:15.427Z,98973.50
2023-03-19T17:39:45.745Z,98965.38
2023-03-19T17:42:20.914Z,98918.38
2023-03-19T17:44:49.536Z,98913.81
2023-03-19T17:47:19.572Z,98923.88
2023-03-19T17:49:47.604Z,98902.31
2023-03-19T17:52:17.276Z,98907.56
2023-03-19T17:54:45.512Z,98888.75
2023-03-19T17:57:14.810Z,98855.03
2023-03-19T17:59:43.996Z,98841.13
2023-03-19T18:02:25.668Z,98818.84
2023-03-19T18:04:53.633Z,98816.94
2023-03-19T18:07:21.393Z,98848.81
2023-03-19T18:09:49.141Z,98870.38
2023-03-19T18:12:17.078Z,98835.03
2023-03-19T18:14:46.328Z,98843.53
2023-03-19T18:17:17.902Z,98842.94
2023-03-19T18:19:47.644Z,98775.47
2023-03-19T18:22:17.241Z,98812.16
2023-03-19T18:24:46.185Z,98804.84
2023-03-19T18:27:14.652Z,98722.53
2023-03-19T18:29:42.419Z,98779.09
2023-03-19T18:32:17.080Z,98746.22
2023-03-19T18:34:45.000Z,98754.84
2023-03-19T18:37:17.080Z,98734.25
2023-03-19T18:39:44.898Z,98716.88
2023-03-19T18:42:14.402Z,98693.31
2023-03-19T18:44:43.815Z,98696.16
2023-03-19T18:47:16.304Z,98685.88
2023-03-19T18:49:45.570Z,98689.34
2023-03-19T18:52:19.301Z,98695.47
2023-03-19T18:54:47.688Z,98685.03
2023-03-19T18:57:17.090Z,98678.94
2023-03-19T18:59:45.083Z,98637.72
2023-03-19T19:02:29.402Z,98622.41
2023-03-19T19:04:57.214Z,98570.47
2023-03-19T19:07:25.013Z,98594.63
2023-03-19T19:09:52.819Z,98592.97
2023-03-19T19:12:21.171Z,98608.53
2023-03-19T19:14:49.505Z,98573.94
2023-03-19T19:17:19.184Z,98568.91
2023-03-19T19:19:48.293Z,98546.53
2023-03-19T19:22:16.941Z,98556.81
2023-03-19T19:24:45.424Z,98542.22
2023-03-19T19:27:18.093Z,98512.91
2023-03-19T19:29:47.394Z,98487.91
2023-03-19T19:32:25.681Z,98492.19
2023-03-19T19:34:55.015Z,98472.47
2023-03-19T19:37:23.582Z,98460.41
2023-03-19T19:39:51.888Z,98478.56
2023-03-19T19:42:22.181Z,98486.22
2023-03-19T19:44:54.144Z,98484.56
2023-03-19T19:47:22.039Z,98468.16
2023-03-19T19:49:50.956Z,98439.84
2023-03-19T19:52:20.672Z,98469.00
2023-03-19T19:54:48.623Z,98454.28
2023-03-19T19:57:19.633Z,98461.34
2023-03-19T19:59:47.460Z,98475.09
2023-03-19T20:02:23.140Z,98471.63
2023-03-19T20:04:50.965Z,98481.91
2023-03-19T20:07:20.144Z,98439.13
2023-03-19T20:09:48.875Z,98462.31
2023-03-19T20:12:22.355Z,98441.50
2023-03-19T20:14:51.418Z,98463.16
2023-03-19T20:17:20.908Z,98429.91
2023-03-19T20:19:49.065Z,98427.03
2023-03-19T20:22:16.930Z,98418.41
2023-03-19T20:24:50.271Z,98385.66
2023-03-19T20:27:22.327Z,98370.25
2023-03-19T20:29:50.707Z,98373.72
2023-03-19T20:32:28.280Z,98348.72
2023-03-19T20:34:56.076Z,98341.78
2023-03-19T20:37:23.794Z,98336.66
2023-03-19T20:39:53.019Z,98341.78
2023-03-19T20:42:21.300Z,98322.91
2023-03-19T20:44:49.570Z,98299.84
2023-03-19T20:47:19.410Z,98316.25
2023-03-19T20:49:47.367Z,98321.97
2023-03-19T20:52:16.392Z,98321.25
2023-03-19T20:54:44.833Z,98270.69
2023-03-19T20:57:16.675Z,98279.88
2023-03-19T20:59:46.948Z,98295.41
2023-03-19T21:02:19.893Z,98303.31
2023-03-19T21:04:47.929Z,98266.41
2023-03-19T21:07:28.644Z,98273.19
2023-03-19T21:09:57.215Z,98250.88
2023-03-19T21:12:29.422Z,98216.59
2023-03-19T21:14:58.025Z,98207.03
2023-03-19T21:17:27.344Z,98204.66
2023-03-19T21:19:55.857Z,98169.66
2023-03-19T21:22:26.500Z,98154.59
2023-03-19T21:25:03.216Z,98137.53
2023-03-19T21:27:34.897Z,98103.19
2023-03-19T21:30:04.162Z,98120.34
2023-03-19T21:32:32.125Z,98135.03
2023-03-19T21:35:00.035Z,98083.50
2023-03-19T21:37:27.984Z,98085.16
2023-03-19T21:39:55.858Z,98068.78
2023-03-19T21:42:24.374Z,98060.44
2023-03-19T21:44:59.893Z,98048.25
2023-03-19T21:47:27.691Z,98043.00
2023-03-19T21:49:55.583Z,98031.09
2023-03-19T21:52:23.339Z,98013.91
2023-03-19T21:54:51.179Z,98012.25
2023-03-19T21:57:19.400Z,98027.75
2023-03-19T21:59:47.699Z,98033.72
2023-03-19T22:02:39.595Z,98051.72
2023-03-19T22:05:16.841Z,98048.53
2023-03-19T22:07:44.665Z,98061.16
2023-03-19T22:10:12.665Z,98030.25
2023-03-19T22:12:42.653Z,98057.81
2023-03-19T22:15:29.332Z,98032.75
2023-03-19T22:17:59.877Z,98038.84
2023-03-19T22:20:27.639Z,98049.94
2023-03-19T22:22:56.475Z,98066.28
2023-03-19T22:25:28.375Z,98042.31
2023-03-19T22:27:56.831Z,98068.06
2023-03-19T22:30:33.953Z,98045.19
2023-03-19T22:33:04.066Z,98012.75
2023-03-19T22:35:31.968Z,98023.72
2023-03-19T22:37:59.810Z,97993.16
2023-03-19T22:40:27.880Z,97982.91
2023-03-19T22:42:55.721Z,97978.88
2023-03-19T22:45:27.334Z,97943.53
2023-03-19T22:47:56.837Z,97931.63
2023-03-19T22:50:28.297Z,97947.94
2023-03-19T22:52:57.224Z,97947.94
2023-03-19T22:55:25.158Z,97929.97
2023-03-19T22:57:52.882Z,97928.28
2023-03-19T23:00:23.846Z,97895.63
2023-03-19T23:02:57.431Z,97907.78
2023-03-19T23:05:29.677Z,97912.78
2023-03-19T23:07:57.839Z,97892.28
2023-03-19T23:10:28.697Z,97854.63
2023-03-19T23:12:57.491Z,97828.19
2023-03-19T23:15:27.394Z,97817.69
2023-03-19T23:17:57.965Z,97829.13
2023-03-19T23:20:28.629Z,97788.75
2023-03-19T23:22:56.611Z,97786.25
2023-03-19T23:25:28.621Z,97784.34
2023-03-19T23:28:00.297Z,97799.00
2023-03-19T23:30:31.501Z,97784.34
2023-03-19T23:33:01.365Z,97749.56
2023-03-19T23:35:32.402Z,97763.84
2023-03-19T23:38:01.875Z,97750.28
2023-03-19T23:40:33.077Z,97772.44
2023-03-19T23:43:02.506Z,97737.41
2023-03-19T23:45:34.678Z,97736.44
2023-03-19T23:48:04.734Z,97713.22
2023-03-19T23:50:34.449Z,97720.50
2023-03-19T23:53:02.625Z,97675.44
2023-03-19T23:55:31.150Z,97717.75
2023-03-19T23:57:59.467Z,97737.28
